Time;durP1;ratioP1;P1;durP2;ratioP2;P2;SDS_P1;SDS_P2;PMS_P1;PMS_P2;Temp;Humidity;BMP_temperature;BMP_pressure;BME280_temperature;BME280_humidity;BME280_pressure;Samples;Min_cycle;Max_cycle;Signal;HPM_P1;HPM_P2
2022/06/15 00:01:32;;;;;;;4.25;1.80;;;14.70;99.90;;;;;;5047906;28;20086;-68
2022/06/15 00:04:00;;;;;;;3.05;2.05;;;14.20;99.90;;;;;;5047983;28;20017;-67
2022/06/15 00:06:28;;;;;;;4.47;1.55;;;14.50;95.80;;;;;;5051147;28;20025;-67
2022/06/15 00:08:56;;;;;;;2.10;1.52;;;14.50;99.90;;;;;;5049061;28;20373;-67
2022/06/15 00:11:28;;;;;;;3.40;1.65;;;14.60;99.90;;;;;;5050717;28;20029;-67
2022/06/15 00:13:56;;;;;;;4.82;2.10;;;14.50;99.90;;;;;;5049080;28;20096;-68
2022/06/15 00:16:22;;;;;;;5.18;1.60;;;14.30;96.30;;;;;;5051093;28;20033;-68
2022/06/15 00:18:48;;;;;;;4.88;2.22;;;14.40;99.90;;;;;;5061801;28;20032;-68
2022/06/15 00:21:15;;;;;;;4.47;1.90;;;14.60;99.90;;;;;;5045625;28;20021;-67
2022/06/15 00:23:40;;;;;;;4.82;1.90;;;14.50;99.90;;;;;;5014895;28;1038805;-68
2022/06/15 00:26:06;;;;;;;8.18;1.98;;;14.30;99.90;;;;;;5051579;28;20089;-68
2022/06/15 00:28:33;;;;;;;4.30;1.83;;;14.30;99.90;;;;;;5044811;28;20485;-68
2022/06/15 00:30:59;;;;;;;1.67;1.27;;;14.00;99.80;;;;;;5051563;28;20055;-67
2022/06/15 00:33:26;;;;;;;3.78;1.75;;;14.00;99.90;;;;;;5052239;28;20031;-68
2022/06/15 00:36:00;;;;;;;3.15;1.63;;;14.20;99.90;;;;;;5051383;28;20020;-68
2022/06/15 00:38:28;;;;;;;4.85;1.75;;;14.20;99.90;;;;;;5050218;28;20032;-68
2022/06/15 00:40:54;;;;;;;2.63;1.48;;;14.20;99.90;;;;;;5051699;28;20041;-68
2022/06/15 00:43:38;;;;;;;1.88;1.35;;;14.10;99.90;;;;;;5050501;28;20611;-68
2022/06/15 00:46:14;;;;;;;2.88;1.45;;;14.20;99.90;;;;;;5051543;28;20021;-68
2022/06/15 00:48:41;;;;;;;6.97;1.88;;;14.20;99.90;;;;;;5046308;28;20036;-68
2022/06/15 00:51:07;;;;;;;5.97;1.65;;;14.10;99.90;;;;;;5045463;28;20092;-68
2022/06/15 00:53:33;;;;;;;5.47;2.20;;;14.20;99.90;;;;;;5051880;28;20099;-68
2022/06/15 00:55:58;;;;;;;5.70;2.03;;;14.30;99.90;;;;;;5050781;28;20041;-68
2022/06/15 00:58:24;;;;;;;2.83;1.70;;;14.10;99.90;;;;;;5051805;28;20032;-68
2022/06/15 01:00:53;;;;;;;4.13;2.00;;;14.00;99.90;;;;;;5049163;28;20032;-67
2022/06/15 01:03:19;;;;;;;5.63;2.53;;;14.00;99.90;;;;;;5045030;28;20025;-68
2022/06/15 01:06:00;;;;;;;8.05;2.80;;;13.90;99.90;;;;;;5045418;28;20036;-68
2022/06/15 01:08:28;;;;;;;3.92;2.08;;;13.80;99.90;;;;;;5045629;28;20389;-68
2022/06/15 01:11:40;;;;;;;5.18;2.17;;;14.00;99.90;;;;;;5050494;28;20378;-68
2022/06/15 01:14:33;;;;;;;4.72;1.88;;;13.70;99.90;;;;;;5008599;28;20167;-68
2022/06/15 01:17:42;;;;;;;6.20;3.38;;;13.90;97.40;;;;;;5008703;28;20202;-68
2022/06/15 01:20:26;;;;;;;7.05;2.63;;;13.90;99.90;;;;;;5008917;28;20030;-68
2022/06/15 01:22:52;;;;;;;3.72;1.92;;;13.70;99.90;;;;;;5008864;28;20041;-67
2022/06/15 01:25:36;;;;;;;4.60;1.85;;;13.80;99.90;;;;;;5008738;28;20038;-68
2022/06/15 01:28:32;;;;;;;7.50;2.28;;;13.60;99.90;;;;;;5008877;28;20018;-68
2022/06/15 01:31:37;;;;;;;6.38;2.42;;;13.50;99.90;;;;;;5007351;28;20038;-68
2022/06/15 01:34:21;;;;;;;5.30;2.67;;;13.50;99.90;;;;;;5008316;28;20030;-68
2022/06/15 01:36:46;;;;;;;7.13;2.53;;;13.60;99.90;;;;;;5008921;28;20246;-68
2022/06/15 01:39:19;;;;;;;6.57;2.50;;;13.50;98.90;;;;;;5008081;28;20468;-68
2022/06/15 01:41:48;;;;;;;6.30;2.50;;;13.50;99.90;;;;;;5008621;28;20033;-68
2022/06/15 01:44:26;;;;;;;6.65;3.30;;;13.50;99.90;;;;;;5008717;28;20034;-68
2022/06/15 01:46:53;;;;;;;5.95;2.55;;;13.90;99.90;;;;;;5007710;28;20101;-68
2022/06/15 01:49:37;;;;;;;4.60;2.50;;;13.50;99.90;;;;;;5016475;28;20034;-68
2022/06/15 01:52:04;;;;;;;4.05;2.53;;;13.40;99.90;;;;;;5049862;28;20021;-68
2022/06/15 01:54:35;;;;;;;3.65;2.00;;;13.30;99.90;;;;;;5050111;28;20033;-68
2022/06/15 01:57:04;;;;;;;5.72;2.75;;;13.30;99.90;;;;;;5049936;28;20428;-68
2022/06/15 01:59:42;;;;;;;6.75;3.22;;;13.40;98.80;;;;;;5045164;28;20020;-68
2022/06/15 02:02:27;;;;;;;4.57;2.38;;;13.40;99.90;;;;;;5050379;28;20108;-68
2022/06/15 02:05:14;;;;;;;4.50;2.42;;;13.30;99.90;;;;;;5047722;28;20092;-68
2022/06/15 02:07:50;;;;;;;7.13;2.63;;;13.30;99.70;;;;;;5050896;28;20370;-68
2022/06/15 02:10:33;;;;;;;4.50;2.28;;;13.30;99.90;;;;;;5044231;28;20096;-68
2022/06/15 02:13:10;;;;;;;5.75;2.75;;;13.40;99.90;;;;;;5050140;28;20024;-68
2022/06/15 02:15:40;;;;;;;8.57;3.10;;;13.30;99.80;;;;;;5049971;28;20044;-68
2022/06/15 02:18:10;;;;;;;3.95;2.25;;;13.30;99.90;;;;;;5048389;28;20032;-68
2022/06/15 02:20:41;;;;;;;7.82;2.30;;;12.70;99.70;;;;;;5049881;28;20075;-68
2022/06/15 02:23:11;;;;;;;3.50;2.83;;;13.50;99.90;;;;;;5049105;28;20477;-68
2022/06/15 02:25:41;;;;;;;4.32;2.67;;;13.40;99.90;;;;;;5049057;28;20025;-68
2022/06/15 02:28:07;;;;;;;5.40;2.85;;;12.90;99.90;;;;;;5048135;28;20378;-68
2022/06/15 02:30:33;;;;;;;3.95;2.70;;;13.10;99.90;;;;;;5049726;28;20035;-67
2022/06/15 02:33:25;;;;;;;5.57;3.78;;;13.20;99.50;;;;;;5048097;28;20025;-68
2022/06/15 02:35:51;;;;;;;4.18;2.75;;;;;;;;;;5044952;28;20024;-68
2022/06/15 02:38:17;;;;;;;4.18;2.75;;;;;;;;;;5048971;28;20099;-68
2022/06/15 02:40:43;;;;;;;7.22;2.83;;;13.30;99.90;;;;;;5065221;28;20029;-68
2022/06/15 02:43:10;;;;;;;7.53;3.08;;;13.20;99.90;;;;;;5048985;28;20029;-69
2022/06/15 02:45:38;;;;;;;4.25;2.20;;;13.10;99.90;;;;;;5049986;28;20136;-68
2022/06/15 02:48:06;;;;;;;7.65;2.50;;;13.00;99.90;;;;;;5049413;28;20107;-68
2022/06/15 02:50:38;;;;;;;9.57;3.85;;;13.00;99.90;;;;;;5049959;28;20075;-68
2022/06/15 02:53:08;;;;;;;3.25;2.00;;;13.00;99.90;;;;;;5047771;28;20029;-68
2022/06/15 02:55:35;;;;;;;4.95;2.70;;;13.10;99.90;;;;;;5049757;28;20021;-68
2022/06/15 02:58:27;;;;;;;4.70;2.40;;;13.00;99.90;;;;;;5049183;28;20033;-68
2022/06/15 03:00:53;;;;;;;7.75;2.55;;;13.30;99.90;;;;;;5035684;28;20028;-69
2022/06/15 03:03:19;;;;;;;8.07;3.33;;;;;;;;;;5049590;28;20420;-68
2022/06/15 03:05:48;;;;;;;6.85;2.85;;;13.10;99.90;;;;;;5049656;28;20021;-68
2022/06/15 03:08:14;;;;;;;5.35;2.97;;;13.00;99.90;;;;;;5049171;28;20151;-68
2022/06/15 03:10:40;;;;;;;3.58;2.63;;;12.70;99.90;;;;;;5049754;28;20053;-68
2022/06/15 03:13:05;;;;;;;4.95;2.40;;;12.90;99.90;;;;;;5049333;28;20021;-68
2022/06/15 03:15:31;;;;;;;6.57;2.38;;;13.10;99.90;;;;;;5049673;28;20021;-68
2022/06/15 03:17:57;;;;;;;3.67;2.25;;;13.00;99.90;;;;;;5049724;28;20466;-68
2022/06/15 03:20:23;;;;;;;5.20;2.40;;;;;;;;;;5049604;28;20025;-68
2022/06/15 03:22:49;;;;;;;6.80;2.67;;;13.00;99.90;;;;;;5049028;28;20025;-68
2022/06/15 03:25:15;;;;;;;7.15;3.15;;;12.90;99.90;;;;;;5064808;28;20045;-68
2022/06/15 03:27:41;;;;;;;8.02;2.80;;;13.00;99.90;;;;;;5049541;28;20032;-68
2022/06/15 03:30:07;;;;;;;5.53;2.75;;;12.90;99.90;;;;;;5049271;28;20021;-68
2022/06/15 03:32:33;;;;;;;5.28;2.92;;;12.90;99.90;;;;;;5049685;28;20036;-68
2022/06/15 03:34:59;;;;;;;6.35;2.65;;;12.90;99.90;;;;;;5048759;28;20033;-68
2022/06/15 03:37:25;;;;;;;5.55;2.80;;;;;;;;;;5049332;28;20044;-68
2022/06/15 03:39:54;;;;;;;3.88;2.40;;;;;;;;;;5049386;28;20036;-68
2022/06/15 03:42:24;;;;;;;5.68;3.30;;;12.90;99.90;;;;;;5047265;28;20478;-68
2022/06/15 03:44:53;;;;;;;3.85;2.70;;;12.90;99.90;;;;;;5047182;28;20052;-68
2022/06/15 03:47:20;;;;;;;7.85;2.63;;;12.90;99.90;;;;;;5047022;28;20339;-68
2022/06/15 03:49:48;;;;;;;8.82;2.65;;;13.10;99.90;;;;;;5046797;28;20029;-68
2022/06/15 03:52:15;;;;;;;5.75;3.17;;;13.00;99.90;;;;;;5045944;28;20032;-68
2022/06/15 03:54:40;;;;;;;5.43;2.55;;;12.90;99.90;;;;;;5046173;28;20056;-68
2022/06/15 03:57:07;;;;;;;9.32;3.10;;;12.90;99.90;;;;;;5046936;28;20138;-68
2022/06/15 03:59:33;;;;;;;3.70;2.28;;;12.90;99.90;;;;;;5048470;28;20021;-69
2022/06/15 04:01:59;;;;;;;13.23;3.10;;;;;;;;;;5049084;28;20025;-68
2022/06/15 04:04:24;;;;;;;4.43;2.83;;;13.00;99.90;;;;;;5047578;28;20096;-68
2022/06/15 04:06:50;;;;;;;3.38;2.67;;;13.10;99.90;;;;;;5049033;28;20503;-68
2022/06/15 04:09:21;;;;;;;6.45;3.05;;;13.00;99.90;;;;;;5049091;28;20017;-68
2022/06/15 04:12:01;;;;;;;4.28;2.10;;;13.00;99.90;;;;;;5051822;28;20024;-68
2022/06/15 04:14:27;;;;;;;3.72;2.33;;;13.10;99.90;;;;;;5043763;28;20445;-68
2022/06/15 04:16:53;;;;;;;6.20;2.63;;;13.00;99.90;;;;;;5052385;28;20045;-68
2022/06/15 04:19:27;;;;;;;7.60;2.50;;;12.90;99.90;;;;;;5051859;28;20039;-68
2022/06/15 04:21:54;;;;;;;5.40;3.00;;;13.00;99.90;;;;;;5052562;28;20111;-68
2022/06/15 04:24:22;;;;;;;4.13;2.47;;;12.90;99.90;;;;;;5052155;28;20422;-68
2022/06/15 04:26:49;;;;;;;4.00;2.17;;;13.10;99.90;;;;;;5052494;28;20029;-68
2022/06/15 04:29:15;;;;;;;5.28;2.65;;;13.20;99.90;;;;;;5051691;28;20497;-68
2022/06/15 04:31:41;;;;;;;5.15;3.13;;;13.10;99.90;;;;;;5052178;28;20382;-68
2022/06/15 04:34:09;;;;;;;5.50;3.20;;;13.10;99.90;;;;;;5051121;28;20029;-68
2022/06/15 04:36:36;;;;;;;6.53;3.72;;;13.20;99.90;;;;;;5052510;28;20040;-69
2022/06/15 04:39:02;;;;;;;4.82;2.78;;;13.30;99.90;;;;;;5051791;28;20021;-68
2022/06/15 04:41:28;;;;;;;6.72;3.25;;;;;;;;;;5052084;28;20032;-68
2022/06/15 04:43:54;;;;;;;5.35;3.20;;;13.50;99.90;;;;;;5051825;28;20105;-68
2022/06/15 04:46:19;;;;;;;5.80;2.88;;;13.50;99.90;;;;;;5051920;28;20601;-68
2022/06/15 04:48:45;;;;;;;8.82;3.13;;;13.60;99.90;;;;;;5051817;28;20116;-69
2022/06/15 04:51:18;;;;;;;5.60;3.08;;;13.60;99.90;;;;;;5051404;28;20021;-68
2022/06/15 04:53:44;;;;;;;8.73;2.92;;;13.80;99.90;;;;;;5052263;28;20071;-68
2022/06/15 04:56:10;;;;;;;8.35;4.45;;;13.90;99.90;;;;;;5051019;28;20029;-68
2022/06/15 04:58:35;;;;;;;6.13;2.22;;;13.60;99.90;;;;;;5051978;28;20101;-68
2022/06/15 05:01:02;;;;;;;6.88;3.08;;;13.80;99.90;;;;;;5051600;28;20025;-68
2022/06/15 05:03:28;;;;;;;4.80;2.92;;;13.80;99.90;;;;;;5049266;28;20563;-67
2022/06/15 05:05:55;;;;;;;7.72;2.92;;;14.10;99.90;;;;;;5049487;28;20029;-67
2022/06/15 05:08:20;;;;;;;6.47;3.10;;;14.00;99.90;;;;;;5051444;28;20040;-68
2022/06/15 05:10:46;;;;;;;5.18;2.65;;;14.20;99.90;;;;;;5043822;28;20029;-67
2022/06/15 05:13:11;;;;;;;5.63;2.63;;;14.10;99.90;;;;;;5048862;28;20473;-68
2022/06/15 05:15:38;;;;;;;4.28;2.45;;;14.50;99.90;;;;;;5038974;28;20029;-68
2022/06/15 05:18:06;;;;;;;4.88;2.63;;;14.40;99.90;;;;;;5049112;28;20033;-67
2022/06/15 05:20:36;;;;;;;7.53;3.50;;;14.50;99.90;;;;;;5048311;28;20052;-67
2022/06/15 05:23:02;;;;;;;4.63;2.50;;;14.80;99.90;;;;;;5044815;28;20017;-67
2022/06/15 05:25:28;;;;;;;5.15;2.88;;;14.90;99.90;;;;;;5050786;28;20015;-71
2022/06/15 05:27:54;;;;;;;7.15;2.80;;;14.70;99.90;;;;;;5050637;28;20096;-72
2022/06/15 05:30:19;;;;;;;6.00;3.17;;;14.90;99.90;;;;;;5046919;28;20469;-71
2022/06/15 05:32:45;;;;;;;6.72;3.47;;;14.90;99.90;;;;;;5050473;28;20069;-72
2022/06/15 05:35:11;;;;;;;5.63;2.42;;;15.20;99.90;;;;;;5049710;28;20367;-72
2022/06/15 05:37:37;;;;;;;6.70;2.85;;;;;;;;;;5036073;28;20098;-72
2022/06/15 05:40:04;;;;;;;5.57;2.83;;;15.40;99.90;;;;;;5050485;28;20378;-72
2022/06/15 05:42:29;;;;;;;5.03;2.20;;;15.40;99.70;;;;;;5049654;28;20519;-72
2022/06/15 05:44:55;;;;;;;6.22;2.40;;;15.40;99.90;;;;;;5050744;28;20028;-72
2022/06/15 05:47:21;;;;;;;9.10;3.63;;;15.40;99.60;;;;;;5050425;28;20032;-72
2022/06/15 05:49:47;;;;;;;7.28;3.05;;;15.60;99.50;;;;;;5050762;28;20375;-72
2022/06/15 05:52:12;;;;;;;5.45;2.67;;;15.50;99.40;;;;;;5050640;28;20059;-72
2022/06/15 05:54:38;;;;;;;5.53;2.40;;;15.60;99.30;;;;;;5050987;28;20025;-72
2022/06/15 05:57:18;;;;;;;6.50;2.58;;;15.70;99.10;;;;;;5050487;28;20055;-72
2022/06/15 05:59:45;;;;;;;7.50;2.78;;;15.80;99.90;;;;;;5050342;28;20028;-71
2022/06/15 06:02:11;;;;;;;5.75;2.33;;;15.80;99.90;;;;;;5049615;28;20418;-72
2022/06/15 06:04:37;;;;;;;5.63;2.65;;;;;;;;;;5044004;28;20092;-72
2022/06/15 06:07:03;;;;;;;4.75;2.53;;;16.10;99.90;;;;;;5049273;28;20039;-71
2022/06/15 06:09:29;;;;;;;5.32;2.83;;;16.00;98.40;;;;;;5049673;28;20021;-72
2022/06/15 06:11:55;;;;;;;4.38;2.35;;;16.00;98.30;;;;;;5049676;28;20033;-72
2022/06/15 06:14:21;;;;;;;5.93;2.50;;;16.10;98.40;;;;;;5049830;28;20024;-72
2022/06/15 06:16:46;;;;;;;6.60;2.65;;;16.30;98.20;;;;;;5049508;28;20033;-72
2022/06/15 06:19:12;;;;;;;6.25;2.33;;;16.20;97.90;;;;;;5050025;28;20025;-72
2022/06/15 06:21:37;;;;;;;4.30;2.25;;;16.30;97.90;;;;;;5049314;28;20124;-72
2022/06/15 06:24:03;;;;;;;6.57;2.58;;;16.40;97.90;;;;;;5049741;28;20045;-72
2022/06/15 06:26:34;;;;;;;8.48;2.70;;;16.50;97.40;;;;;;5050334;28;20021;-72
2022/06/15 06:29:00;;;;;;;6.00;2.00;;;16.50;97.90;;;;;;5049481;28;20017;-72
2022/06/15 06:31:27;;;;;;;3.65;1.67;;;16.60;97.60;;;;;;5049281;28;20055;-72
2022/06/15 06:33:53;;;;;;;5.35;2.47;;;16.70;97.50;;;;;;5030138;28;20033;-72
2022/06/15 06:36:52;;;;;;;6.72;1.98;;;16.80;97.40;;;;;;5046691;28;20041;-72
2022/06/15 06:39:20;;;;;;;4.60;2.20;;;16.90;96.70;;;;;;5040415;28;20048;-72
2022/06/15 06:41:47;;;;;;;6.00;1.80;;;16.90;97.10;;;;;;5049464;28;20025;-72
2022/06/15 06:44:13;;;;;;;3.53;1.55;;;18.30;97.20;;;;;;5049293;28;20032;-72
2022/06/15 06:46:44;;;;;;;5.35;1.77;;;17.10;96.80;;;;;;5049966;28;20037;-72
2022/06/15 06:49:11;;;;;;;3.72;1.88;;;17.20;96.80;;;;;;5049514;28;20033;-72
2022/06/15 06:51:38;;;;;;;5.85;2.15;;;17.20;96.40;;;;;;5049152;28;20064;-72
2022/06/15 06:54:05;;;;;;;6.15;2.38;;;17.30;96.30;;;;;;5048143;28;20139;-72
2022/06/15 06:56:31;;;;;;;4.03;2.25;;;17.70;95.90;;;;;;5049874;28;20036;-72
2022/06/15 06:58:56;;;;;;;5.85;1.90;;;17.50;95.10;;;;;;5045521;28;20017;-72
2022/06/15 07:01:22;;;;;;;4.78;1.50;;;17.60;95.00;;;;;;5037434;28;20382;-71
2022/06/15 07:03:48;;;;;;;6.32;2.30;;;17.70;94.90;;;;;;5047738;28;20028;-72
2022/06/15 07:06:13;;;;;;;6.00;1.38;;;17.70;94.80;;;;;;5048916;28;20025;-72
2022/06/15 07:08:39;;;;;;;7.18;2.15;;;18.70;95.20;;;;;;5050937;28;20123;-72
2022/06/15 07:11:10;;;;;;;4.53;1.92;;;18.00;94.60;;;;;;5049255;28;20048;-72
2022/06/15 07:13:36;;;;;;;4.05;1.90;;;19.00;94.80;;;;;;5042321;28;20033;-72
2022/06/15 07:16:10;;;;;;;8.30;1.83;;;18.10;94.00;;;;;;5048407;28;20394;-72
2022/06/15 07:18:35;;;;;;;4.88;2.17;;;18.40;94.20;;;;;;5049305;28;20092;-72
2022/06/15 07:21:04;;;;;;;4.95;2.00;;;18.50;92.90;;;;;;5058473;28;20021;-73
2022/06/15 07:23:29;;;;;;;6.28;2.70;;;19.60;93.70;;;;;;5047878;28;20041;-72
2022/06/15 07:25:55;;;;;;;9.98;2.40;;;18.90;92.80;;;;;;5049164;28;20123;-72
2022/06/15 07:28:21;;;;;;;7.25;1.70;;;18.70;92.70;;;;;;5048527;28;20017;-72
2022/06/15 07:30:47;;;;;;;5.00;2.10;;;18.70;92.60;;;;;;5049198;28;20021;-73
2022/06/15 07:33:14;;;;;;;5.05;2.10;;;18.80;92.40;;;;;;5048519;28;20074;-73
2022/06/15 07:35:41;;;;;;;3.80;1.45;;;19.00;92.40;;;;;;5049145;28;20028;-72
2022/06/15 07:38:06;;;;;;;3.65;1.42;;;19.00;92.30;;;;;;5048781;28;20514;-75
2022/06/15 07:40:33;;;;;;;4.70;1.80;;;19.50;92.10;;;;;;5049266;28;20110;-72
2022/06/15 07:42:58;;;;;;;3.80;1.50;;;19.40;91.60;;;;;;5051973;28;20025;-72
2022/06/15 07:45:25;;;;;;;4.68;1.60;;;19.40;91.20;;;;;;5051130;28;20025;-73
2022/06/15 07:50:37;;;;;;;4.55;1.45;;;19.60;90.30;;;;;;5054420;28;20410;-73
2022/06/15 07:53:05;;;;;;;7.00;1.80;;;20.10;90.10;;;;;;5052442;28;20057;-72
2022/06/15 07:55:34;;;;;;;3.25;1.25;;;19.90;90.30;;;;;;5052582;28;20098;-72
2022/06/15 07:58:01;;;;;;;5.78;2.28;;;19.90;90.20;;;;;;5047675;28;20131;-73
2022/06/15 08:00:27;;;;;;;6.05;1.27;;;20.00;89.10;;;;;;5052612;28;20025;-73
2022/06/15 08:02:54;;;;;;;5.40;1.25;;;21.40;89.60;;;;;;5052707;28;20443;-72
2022/06/15 08:05:19;;;;;;;9.25;2.65;;;20.40;88.30;;;;;;5057848;28;20028;-72
2022/06/15 08:07:46;;;;;;;4.55;1.30;;;20.30;86.80;;;;;;5052089;28;20457;-73
2022/06/15 08:10:16;;;;;;;6.60;1.25;;;21.30;87.40;;;;;;5051750;28;20087;-72
2022/06/15 08:12:42;;;;;;;4.90;1.58;;;20.30;86.00;;;;;;5052389;28;20040;-72
2022/06/15 08:15:09;;;;;;;7.57;1.67;;;20.40;85.30;;;;;;5052052;28;20587;-71
2022/06/15 08:17:45;;;;;;;6.10;1.77;;;20.40;84.50;;;;;;5053681;28;20036;-72
2022/06/15 08:20:20;;;;;;;4.57;1.50;;;20.40;85.50;;;;;;5052624;28;20021;-73
2022/06/15 08:22:48;;;;;;;3.38;1.25;;;20.60;85.90;;;;;;5058000;28;20064;-72
2022/06/15 08:25:22;;;;;;;3.88;1.40;;;20.50;84.60;;;;;;5051538;28;20490;-72
2022/06/15 08:27:48;;;;;;;4.03;1.55;;;20.60;85.30;;;;;;5051445;28;20406;-72
2022/06/15 08:30:15;;;;;;;4.78;1.40;;;20.40;84.70;;;;;;5054401;28;20167;-72
2022/06/15 08:32:41;;;;;;;4.55;1.17;;;20.70;84.90;;;;;;5055490;28;20052;-72
2022/06/15 08:35:08;;;;;;;3.75;1.00;;;20.60;84.80;;;;;;5062524;28;20502;-71
2022/06/15 08:37:34;;;;;;;5.15;1.50;;;20.70;84.70;;;;;;5065529;28;20125;-72
2022/06/15 08:40:00;;;;;;;3.00;1.15;;;21.20;84.50;;;;;;5056103;28;20064;-72
2022/06/15 08:42:28;;;;;;;4.60;1.33;;;20.90;83.90;;;;;;5050922;28;20017;-71
2022/06/15 08:45:14;;;;;;;4.95;1.92;;;20.70;81.60;;;;;;5056860;28;20021;-74
2022/06/15 08:47:56;;;;;;;3.85;1.33;;;20.90;84.80;;;;;;5052786;28;20032;-73
2022/06/15 08:50:47;;;;;;;6.85;1.48;;;20.90;82.40;;;;;;5055040;28;20378;-72
2022/06/15 08:53:30;;;;;;;4.57;1.60;;;20.90;82.30;;;;;;5057565;28;20565;-72
2022/06/15 08:56:05;;;;;;;4.97;1.40;;;21.00;81.80;;;;;;5050130;28;20029;-72
2022/06/15 08:59:07;;;;;;;5.95;1.33;;;20.90;83.60;;;;;;5051998;28;20377;-72
2022/06/15 09:01:58;;;;;;;3.22;1.13;;;20.90;81.80;;;;;;5051907;28;20192;-72
2022/06/15 09:04:54;;;;;;;4.60;1.88;;;21.00;81.60;;;;;;5044501;28;20024;-72
2022/06/15 09:07:35;;;;;;;2.42;1.02;;;22.30;84.40;;;;;;5047923;28;20036;-74
2022/06/15 09:10:27;;;;;;;3.35;1.33;;;21.20;81.60;;;;;;5050507;28;20029;-72
2022/06/15 09:13:20;;;;;;;7.57;1.65;;;21.10;83.60;;;;;;5051361;28;20036;-72
2022/06/15 09:15:57;;;;;;;6.30;1.23;;;21.20;80.90;;;;;;5050553;28;20024;-72
2022/06/15 09:18:32;;;;;;;6.32;2.00;;;21.40;82.60;;;;;;5050049;28;20032;-72
2022/06/15 09:21:05;;;;;;;5.32;1.58;;;21.20;81.90;;;;;;5050064;28;20017;-72
2022/06/15 09:23:36;;;;;;;6.78;2.08;;;21.30;81.60;;;;;;5051162;28;20098;-72
2022/06/15 09:26:07;;;;;;;5.85;1.25;;;21.20;81.90;;;;;;5049476;28;20509;-73
2022/06/15 09:28:45;;;;;;;7.97;2.30;;;21.40;81.90;;;;;;5051684;28;20107;-73
2022/06/15 09:31:16;;;;;;;3.55;1.38;;;21.40;81.30;;;;;;5051037;28;20550;-72
2022/06/15 09:33:47;;;;;;;3.15;1.58;;;21.40;81.30;;;;;;5051482;28;20020;-73
2022/06/15 09:36:17;;;;;;;4.70;1.83;;;21.40;80.90;;;;;;5050477;28;20182;-72
2022/06/15 09:38:43;;;;;;;5.93;1.98;;;21.50;80.50;;;;;;5050794;28;20028;-72
2022/06/15 09:41:19;;;;;;;3.85;1.65;;;21.60;80.30;;;;;;5050687;28;20382;-72
2022/06/15 09:44:06;;;;;;;4.47;1.63;;;21.60;79.30;;;;;;5050185;28;20575;-73
2022/06/15 09:46:56;;;;;;;4.95;1.20;;;21.60;79.30;;;;;;5050027;28;20040;-72
2022/06/15 09:49:41;;;;;;;5.30;1.50;;;21.70;79.50;;;;;;5050043;28;20025;-73
2022/06/15 09:52:24;;;;;;;5.55;1.45;;;21.70;78.80;;;;;;5050208;28;20478;-73
2022/06/15 09:55:08;;;;;;;3.15;1.13;;;21.80;78.70;;;;;;5050741;28;20097;-73
2022/06/15 09:57:39;;;;;;;6.95;1.65;;;22.00;78.80;;;;;;5050455;28;20125;-72
2022/06/15 10:00:07;;;;;;;9.55;1.95;;;21.90;80.50;;;;;;5049744;28;20021;-72
2022/06/15 10:02:36;;;;;;;6.43;1.48;;;21.90;78.50;;;;;;5050897;28;20374;-73
2022/06/15 10:05:06;;;;;;;4.85;1.83;;;22.00;79.20;;;;;;5050273;28;20068;-72
2022/06/15 10:07:38;;;;;;;4.15;1.38;;;22.00;78.80;;;;;;5049849;28;20024;-72
2022/06/15 10:10:17;;;;;;;4.47;1.77;;;22.10;78.90;;;;;;5050273;28;20040;-71
2022/06/15 10:12:58;;;;;;;3.17;1.15;;;22.00;78.30;;;;;;5050696;28;20019;-71
2022/06/15 10:15:49;;;;;;;5.28;1.70;;;21.90;76.60;;;;;;5050550;28;20029;-72
2022/06/15 10:18:46;;;;;;;5.38;1.35;;;22.20;76.20;;;;;;5043505;28;20464;-71
2022/06/15 10:21:15;;;;;;;2.78;1.23;;;22.30;76.60;;;;;;5048831;28;20037;-71
2022/06/15 10:23:46;;;;;;;2.65;1.33;;;22.30;77.90;;;;;;5050091;28;20053;-70
2022/06/15 10:26:32;;;;;;;4.03;0.90;;;22.20;75.00;;;;;;5049909;28;20032;-71
2022/06/15 10:29:04;;;;;;;2.97;1.30;;;22.20;75.80;;;;;;5049476;28;20079;-71
2022/06/15 10:31:33;;;;;;;3.17;1.25;;;22.50;77.20;;;;;;5049963;28;20033;-70
2022/06/15 10:34:19;;;;;;;4.45;1.00;;;22.20;77.00;;;;;;5048936;28;20029;-70
2022/06/15 10:36:54;;;;;;;2.83;0.90;;;22.30;77.70;;;;;;5049097;28;20461;-70
2022/06/15 10:39:27;;;;;;;2.05;0.82;;;23.00;77.60;;;;;;5049975;28;20063;-70
2022/06/15 10:42:20;;;;;;;3.10;1.43;;;22.40;77.10;;;;;;5049358;28;20029;-70
2022/06/15 10:44:59;;;;;;;4.75;1.10;;;22.50;75.60;;;;;;5044406;28;20120;-71
2022/06/15 10:47:48;;;;;;;2.58;1.30;;;22.50;75.60;;;;;;5045247;28;20025;-70
2022/06/15 10:50:26;;;;;;;3.88;1.33;;;22.60;90.80;;;;;;5049327;28;20029;-70
2022/06/15 10:52:56;;;;;;;4.45;1.30;;;22.60;75.50;;;;;;5049560;28;20029;-70
2022/06/15 11:04:19;;;;;;;4.45;1.63;;;22.80;76.00;;;;;;5049390;28;20087;-70
2022/06/15 11:06:52;;;;;;;1.67;0.98;;;22.70;75.70;;;;;;5049491;28;20029;-70
2022/06/15 11:09:49;;;;;;;3.35;1.33;;;24.30;74.70;;;;;;5049671;28;20013;-69
2022/06/15 11:12:39;;;;;;;4.00;0.98;;;22.80;73.40;;;;;;5046436;28;20047;-70
2022/06/15 11:15:22;;;;;;;4.80;2.08;;;22.70;72.90;;;;;;5048988;28;20032;-70
2022/06/15 11:18:03;;;;;;;3.08;1.45;;;22.80;73.60;;;;;;5051649;28;20076;-69
2022/06/15 11:20:47;;;;;;;5.70;1.48;;;22.80;74.80;;;;;;5068543;28;20452;-70
2022/06/15 11:23:19;;;;;;;3.85;2.00;;;23.00;75.50;;;;;;5053438;28;20029;-70
2022/06/15 11:25:47;;;;;;;4.10;1.27;;;22.70;75.10;;;;;;5044575;28;20025;-71
2022/06/15 11:28:24;;;;;;;3.90;2.10;;;22.80;74.30;;;;;;5051053;28;20013;-70
2022/06/15 11:31:14;;;;;;;4.18;1.20;;;22.80;72.30;;;;;;5049443;28;20451;-70
2022/06/15 11:33:43;;;;;;;2.38;1.33;;;22.90;74.60;;;;;;5048615;28;20027;-70
2022/06/15 11:36:25;;;;;;;4.32;1.40;;;23.00;74.00;;;;;;5055635;28;20130;-70
2022/06/15 11:39:09;;;;;;;5.03;1.10;;;22.90;74.20;;;;;;5045332;28;20020;-69
2022/06/15 11:41:51;;;;;;;;;;;22.90;72.10;;;;;;5053969;28;20022;-70
2022/06/15 11:44:29;;;;;;;2.35;1.17;;;22.90;72.50;;;;;;5051281;28;19909;-70
2022/06/15 11:47:16;;;;;;;2.95;1.60;;;22.90;73.60;;;;;;5052618;28;20032;-70
2022/06/15 11:50:11;;;;;;;4.20;1.23;;;23.00;71.20;;;;;;5052812;28;20470;-70
2022/06/15 11:52:46;;;;;;;4.50;1.25;;;23.00;71.70;;;;;;5048760;28;20025;-70
2022/06/15 11:55:28;;;;;;;3.70;1.23;;;22.90;70.80;;;;;;5053056;28;20029;-69
2022/06/15 11:58:21;;;;;;;2.22;1.00;;;22.80;71.80;;;;;;5051989;28;20032;-70
2022/06/15 12:00:57;;;;;;;3.55;1.08;;;23.00;71.80;;;;;;5040083;28;20025;-70
2022/06/15 12:03:34;;;;;;;2.08;0.70;;;23.00;72.60;;;;;;5050243;28;20661;-70
2022/06/15 12:06:27;;;;;;;3.15;1.50;;;23.00;70.50;;;;;;5063142;28;20025;-70
2022/06/15 12:09:29;;;;;;;3.08;1.05;;;23.00;70.80;;;;;;5067136;28;20020;-70
2022/06/15 12:15:12;;;;;;;;;;;22.90;72.40;;;;;;5056993;28;20035;-70
2022/06/15 12:17:57;;;;;;;2.70;0.95;;;23.00;71.10;;;;;;5052117;28;20042;-70
2022/06/15 12:20:52;;;;;;;3.75;1.08;;;23.10;70.80;;;;;;5052780;28;20021;-70
2022/06/15 12:23:56;;;;;;;5.72;0.90;;;23.30;70.90;;;;;;5051671;28;20041;-70
2022/06/15 12:26:50;;;;;;;3.30;1.05;;;23.40;70.80;;;;;;5048685;28;20071;-70
2022/06/15 12:29:36;;;;;;;2.15;0.90;;;23.50;70.40;;;;;;5051805;28;20071;-70
2022/06/15 12:32:38;;;;;;;4.75;1.20;;;23.60;69.60;;;;;;5050432;28;20091;-70
2022/06/15 12:35:02;;;;;;;3.05;1.00;;;23.60;67.70;;;;;;5049315;28;20051;-70
2022/06/15 12:37:51;;;;;;;2.78;0.90;;;23.50;69.90;;;;;;5052449;28;20072;-70
2022/06/15 12:40:40;;;;;;;1.80;0.70;;;23.60;67.90;;;;;;5051875;28;20074;-71
2022/06/15 12:43:33;;;;;;;1.52;0.80;;;23.60;69.60;;;;;;5054294;28;20413;-70
2022/06/15 12:46:16;;;;;;;3.73;1.20;;;23.70;68.10;;;;;;5045930;28;20027;-71
2022/06/15 12:49:06;;;;;;;2.80;1.25;;;23.80;67.80;;;;;;5052131;28;20374;-71
2022/06/15 12:51:59;;;;;;;3.53;1.30;;;23.80;68.10;;;;;;5051949;28;20025;-70
2022/06/15 12:54:37;;;;;;;3.25;0.95;;;23.80;70.00;;;;;;5054720;28;20192;-70
2022/06/15 12:57:06;;;;;;;3.72;1.02;;;23.80;67.90;;;;;;5051095;28;20033;-70
2022/06/15 13:00:13;;;;;;;2.60;0.77;;;23.80;69.60;;;;;;5056565;28;20355;-70
2022/06/15 13:03:02;;;;;;;3.50;1.00;;;24.00;68.30;;;;;;5051199;28;20118;-70
2022/06/15 13:05:32;;;;;;;5.93;1.77;;;24.00;70.00;;;;;;5051644;28;20394;-71
2022/06/15 13:08:16;;;;;;;3.58;0.82;;;24.10;68.80;;;;;;5051059;28;20486;-71
2022/06/15 13:10:53;;;;;;;4.93;1.20;;;24.20;67.30;;;;;;5050810;28;20429;-70
2022/06/15 13:13:33;;;;;;;3.08;1.35;;;25.30;69.00;;;;;;5051417;28;20037;-70
2022/06/15 13:16:08;;;;;;;3.78;1.33;;;25.90;68.90;;;;;;5048826;28;20035;-70
2022/06/15 13:18:49;;;;;;;2.95;0.93;;;24.00;67.30;;;;;;5045752;28;20513;-70
2022/06/15 13:21:20;;;;;;;2.28;1.35;;;24.20;66.10;;;;;;5050111;28;20024;-71
2022/06/15 13:24:08;;;;;;;2.25;0.80;;;24.30;67.60;;;;;;5050183;28;20055;-70
2022/06/15 13:26:36;;;;;;;2.67;1.00;;;24.40;66.30;;;;;;5050745;28;20025;-71
2022/06/15 13:29:03;;;;;;;2.58;1.00;;;24.40;67.90;;;;;;5049141;28;20498;-70
2022/06/15 13:31:51;;;;;;;1.08;0.90;;;24.60;67.00;;;;;;5050988;28;20025;-71
2022/06/15 13:34:17;;;;;;;3.75;1.10;;;24.60;65.90;;;;;;5051092;28;20025;-71
2022/06/15 13:37:14;;;;;;;2.38;0.80;;;24.60;66.80;;;;;;5051310;28;20048;-71